createdAt,value
2023-03-15T00:00:59.927Z,101104.09
2023-03-15T00:02:03.976Z,101099.41
2023-03-15T00:03:07.650Z,101094.38
2023-03-15T00:04:11.546Z,101033.59
2023-03-15T00:05:15.355Z,101113.50
2023-03-15T00:06:19.137Z,101105.75
2023-03-15T00:07:22.971Z,101106.53
2023-03-15T00:08:26.715Z,101036.03
2023-03-15T00:09:30.397Z,101103.47
2023-03-15T00:10:34.176Z,101107.69
2023-03-15T00:11:37.915Z,101116.38
2023-03-15T00:12:42.093Z,101033.94
2023-03-15T00:13:46.040Z,101035.88
2023-03-15T00:14:52.186Z,101118.34
2023-03-15T00:15:59.519Z,101105.88
2023-03-15T00:17:03.231Z,101121.25
2023-03-15T00:18:07.018Z,101057.06
2023-03-15T00:19:11.046Z,101133.69
2023-03-15T00:20:15.538Z,101059.81
2023-03-15T00:21:19.220Z,101124.00
2023-03-15T00:22:22.929Z,101129.34
2023-03-15T00:23:27.014Z,101071.59
2023-03-15T00:24:30.716Z,101124.00
2023-03-15T00:25:34.578Z,101134.97
2023-03-15T00:26:38.402Z,101130.59
2023-03-15T00:27:42.109Z,101129.34
2023-03-15T00:28:46.219Z,101137.72
2023-03-15T00:29:51.721Z,101139.03
2023-03-15T00:31:05.562Z,101141.13
2023-03-15T00:32:09.365Z,101142.41
2023-03-15T00:33:13.712Z,101139.19
2023-03-15T00:34:17.462Z,101067.72
2023-03-15T00:35:21.602Z,101142.41
2023-03-15T00:36:26.075Z,101140.13
2023-03-15T00:37:30.291Z,101135.75
2023-03-15T00:38:34.592Z,101144.19
2023-03-15T00:39:38.388Z,101148.06
2023-03-15T00:40:42.086Z,101139.31
2023-03-15T00:41:45.775Z,101154.53
2023-03-15T00:42:49.573Z,101153.88
2023-03-15T00:43:53.690Z,101157.78
2023-03-15T00:44:58.998Z,101155.03
2023-03-15T00:46:03.017Z,101164.25
2023-03-15T00:47:06.834Z,101159.22
2023-03-15T00:48:10.718Z,101161.66
2023-03-15T00:49:14.438Z,101161.34
2023-03-15T00:50:18.189Z,101165.03
2023-03-15T00:51:23.613Z,101167.44
2023-03-15T00:52:27.430Z,101174.59
2023-03-15T00:53:31.182Z,101116.41
2023-03-15T00:54:34.933Z,101175.06
2023-03-15T00:55:38.664Z,101164.88
2023-03-15T00:56:42.588Z,101177.13
2023-03-15T00:57:47.364Z,101182.81
2023-03-15T00:58:51.692Z,101188.16
2023-03-15T00:59:55.533Z,101188.59
2023-03-15T01:01:00.977Z,101191.34
2023-03-15T01:02:06.024Z,101194.13
2023-03-15T01:03:09.825Z,101194.28
2023-03-15T01:04:13.595Z,101193.63
2023-03-15T01:05:17.296Z,101196.06
2023-03-15T01:06:23.532Z,101197.50
2023-03-15T01:07:27.356Z,101201.56
2023-03-15T01:08:31.195Z,101200.41
2023-03-15T01:09:34.905Z,101201.06
2023-03-15T01:10:38.618Z,101203.16
2023-03-15T01:11:42.346Z,101205.91
2023-03-15T01:12:46.429Z,101200.88
2023-03-15T01:13:50.159Z,101204.59
2023-03-15T01:14:53.779Z,101185.69
2023-03-15T01:16:00.917Z,101200.91
2023-03-15T01:17:04.698Z,101213.50
2023-03-15T01:18:08.514Z,101208.16
2023-03-15T01:19:17.904Z,101210.63
2023-03-15T01:20:21.670Z,101187.16
2023-03-15T01:21:25.459Z,101206.06
2023-03-15T01:22:29.193Z,101179.09
2023-03-15T01:23:32.850Z,101205.72
2023-03-15T01:24:36.545Z,101218.84
2023-03-15T01:25:40.158Z,101147.69
2023-03-15T01:26:43.848Z,101209.47
2023-03-15T01:27:47.725Z,101167.28
2023-03-15T01:28:52.649Z,101226.97
2023-03-15T01:29:59.015Z,101201.69
2023-03-15T01:31:04.710Z,101119.22
2023-03-15T01:32:09.104Z,101198.31
2023-03-15T01:33:12.950Z,101219.34
2023-03-15T01:34:17.262Z,101223.34
2023-03-15T01:35:21.058Z,101217.53
2023-03-15T01:36:25.395Z,101224.47
2023-03-15T01:37:29.200Z,101221.09
2023-03-15T01:38:33.451Z,101219.28
2023-03-15T01:39:37.158Z,101230.13
2023-03-15T01:40:43.023Z,101227.31
2023-03-15T01:41:46.875Z,101223.91
2023-03-15T01:43:06.432Z,101191.59
2023-03-15T01:44:14.651Z,101217.88
2023-03-15T01:45:50.783Z,101229.03
2023-03-15T01:46:56.105Z,101230.03
2023-03-15T01:48:00.257Z,101226.25
2023-03-15T01:49:07.922Z,101213.84
2023-03-15T01:50:13.109Z,101230.66
2023-03-15T01:51:21.707Z,101228.59
2023-03-15T01:52:27.734Z,101233.41
2023-03-15T01:53:33.472Z,101232.91
2023-03-15T01:54:42.585Z,101230.78
2023-03-15T01:55:46.277Z,101236.91
2023-03-15T01:56:53.513Z,101218.97
2023-03-15T01:57:59.529Z,101230.72
2023-03-15T01:59:06.555Z,101230.59
2023-03-15T02:00:13.426Z,101235.72
2023-03-15T02:01:18.019Z,101222.91
2023-03-15T02:02:25.893Z,101231.34
2023-03-15T02:03:34.891Z,101240.41
2023-03-15T02:04:43.573Z,101189.75
2023-03-15T02:05:50.139Z,101242.56
2023-03-15T02:06:58.036Z,101239.66
2023-03-15T02:08:02.550Z,101244.66
2023-03-15T02:09:10.442Z,101238.53
2023-03-15T20:01:45.520Z,101040.06
2023-03-15T20:02:49.667Z,101062.41
2023-03-15T20:03:53.528Z,101049.13
2023-03-15T20:04:57.175Z,101063.44
2023-03-15T20:06:05.685Z,101049.91
2023-03-15T20:07:09.351Z,101058.50
2023-03-15T20:08:13.305Z,101046.50
2023-03-15T20:09:17.007Z,101056.03
2023-03-15T20:10:21.384Z,101049.09
2023-03-15T20:11:25.375Z,101018.38
2023-03-15T20:12:29.541Z,101049.22
2023-03-15T20:13:33.834Z,101050.38
2023-03-15T20:14:37.595Z,101052.41
2023-03-15T20:15:41.446Z,101047.63
2023-03-15T20:16:47.584Z,101049.22
2023-03-15T20:17:51.382Z,101037.56
2023-03-15T20:18:55.149Z,101039.63
2023-03-15T20:19:58.830Z,101045.44
2023-03-15T20:21:02.491Z,101045.00
2023-03-15T20:22:06.214Z,101041.00
2023-03-15T20:23:10.051Z,101030.34
2023-03-15T20:24:13.944Z,101047.19
2023-03-15T20:25:19.510Z,101032.28
2023-03-15T20:26:23.382Z,101032.59
2023-03-15T20:27:34.117Z,101045.25
